createdAt,value
2023-02-06T00:01:24.109Z,27.20
2023-02-06T00:03:52.076Z,26.80
2023-02-06T00:06:20.482Z,27.10
2023-02-06T00:08:48.541Z,26.80
2023-02-06T00:11:17.374Z,25.60
2023-02-06T00:13:46.198Z,28.10
2023-02-06T00:16:26.190Z,27.30
2023-02-06T00:18:55.566Z,26.10
2023-02-06T00:21:26.019Z,28.90
2023-02-06T00:23:55.925Z,27.30
2023-02-06T00:26:25.204Z,28.40
2023-02-06T00:28:53.146Z,27.50
2023-02-06T00:31:21.012Z,30.10
2023-02-06T00:33:49.169Z,29.80
2023-02-06T00:36:17.108Z,29.20
2023-02-06T00:38:44.898Z,28.00
2023-02-06T00:41:12.830Z,28.30
2023-02-06T00:43:42.053Z,32.80
2023-02-06T00:46:09.907Z,31.50
2023-02-06T00:48:37.727Z,28.70
2023-02-06T00:51:05.803Z,30.60
2023-02-06T00:53:33.843Z,29.70
2023-02-06T00:56:01.685Z,27.30
2023-02-06T00:58:29.441Z,29.30
2023-02-06T07:02:45.972Z,17.70
2023-02-06T07:05:13.936Z,19.90
2023-02-06T07:07:41.791Z,22.40
2023-02-06T07:10:11.343Z,25.00
2023-02-06T07:12:39.643Z,27.90
2023-02-06T07:15:08.447Z,28.40
2023-02-06T07:17:36.642Z,25.90
2023-02-06T07:20:05.123Z,22.10
2023-02-06T07:22:33.004Z,26.40
2023-02-06T07:25:00.953Z,25.90
2023-02-06T07:27:28.768Z,24.30
2023-02-06T07:29:56.676Z,24.10
2023-02-06T07:32:24.452Z,20.50
2023-02-06T07:34:52.323Z,24.50
2023-02-06T07:37:20.176Z,26.10
2023-02-06T07:39:47.932Z,29.10
2023-02-06T07:42:15.696Z,24.60
2023-02-06T07:44:43.565Z,25.70
2023-02-06T07:47:11.430Z,25.00
2023-02-06T07:49:39.223Z,26.40
2023-02-06T07:52:07.058Z,28.40
2023-02-06T07:54:35.127Z,26.80
2023-02-06T07:57:03.107Z,24.30
2023-02-06T07:59:31.069Z,23.00
2023-02-06T08:02:00.058Z,24.90
2023-02-06T08:04:29.623Z,18.90
2023-02-06T08:06:57.530Z,22.40
2023-02-06T08:09:25.307Z,24.80
2023-02-06T08:11:53.053Z,25.00
2023-02-06T08:14:21.124Z,22.50
2023-02-06T08:16:50.246Z,22.70
2023-02-06T08:19:18.550Z,21.20
2023-02-06T08:21:46.358Z,15.60
2023-02-06T08:24:14.227Z,18.40
2023-02-06T08:26:43.991Z,18.80
2023-02-06T08:29:14.471Z,23.20
2023-02-06T08:31:43.554Z,16.70
2023-02-06T08:34:14.186Z,13.80
2023-02-06T08:36:43.586Z,18.70
2023-02-06T08:39:15.516Z,16.50
2023-02-06T08:41:44.236Z,13.40
2023-02-06T08:44:16.189Z,12.00
2023-02-06T08:46:46.239Z,19.20
2023-02-06T08:49:19.583Z,18.70
2023-02-06T08:51:49.726Z,21.50
2023-02-06T08:54:20.458Z,16.20
2023-02-06T08:56:49.396Z,17.40
2023-02-06T08:59:18.650Z,23.70
2023-02-06T09:01:49.208Z,18.70
2023-02-06T09:04:17.772Z,22.40
2023-02-06T09:06:48.974Z,22.40
2023-02-06T09:09:16.971Z,25.00
2023-02-06T09:11:44.834Z,23.20
2023-02-06T09:14:16.232Z,28.90
2023-02-06T09:16:44.872Z,25.60
2023-02-06T09:19:13.052Z,22.80
2023-02-06T09:21:41.126Z,26.70
2023-02-06T09:24:10.132Z,24.70
2023-02-06T09:26:57.321Z,28.60
2023-02-06T09:29:29.135Z,26.90
2023-02-06T09:31:58.086Z,28.50
2023-02-06T09:34:27.581Z,31.40
2023-02-06T09:36:57.039Z,25.80
2023-02-06T09:39:25.510Z,24.90
2023-02-06T09:42:06.529Z,23.80
2023-02-06T09:44:39.203Z,29.90
2023-02-06T09:47:15.259Z,28.30
2023-02-06T09:49:49.395Z,28.50
2023-02-06T09:52:36.909Z,27.60
2023-02-06T09:55:18.493Z,29.70
2023-02-06T09:57:55.831Z,26.60
2023-02-06T10:00:29.597Z,29.60
2023-02-06T10:03:19.329Z,26.60
2023-02-06T10:06:08.532Z,31.40
2023-02-06T10:08:42.812Z,22.50
2023-02-06T10:11:21.460Z,23.80
2023-02-06T10:13:55.675Z,23.00
2023-02-06T10:16:45.370Z,30.10
2023-02-06T10:19:44.194Z,29.60
2023-02-06T10:22:27.158Z,24.90
2023-02-06T10:25:01.175Z,24.70
2023-02-06T10:27:33.034Z,30.20
2023-02-06T10:32:36.647Z,30.40
2023-02-06T10:35:29.998Z,27.90
2023-02-06T10:38:25.741Z,31.90
2023-02-06T10:41:01.572Z,28.20
2023-02-06T10:43:49.032Z,29.60
2023-02-06T10:46:41.578Z,29.40
2023-02-06T10:49:12.719Z,25.10
2023-02-06T10:51:44.453Z,31.80
2023-02-06T10:56:46.234Z,25.10
2023-02-06T10:59:38.207Z,26.80
2023-02-06T11:02:31.600Z,30.90
2023-02-06T11:05:27.644Z,30.30
2023-02-06T11:08:02.938Z,28.40
2023-02-06T11:10:32.387Z,28.70
2023-02-06T11:13:06.920Z,32.10
2023-02-06T11:15:43.111Z,24.50
2023-02-06T11:18:17.030Z,28.20
2023-02-06T11:20:46.585Z,24.70
2023-02-06T11:23:19.375Z,30.10
2023-02-06T11:25:56.343Z,29.70
2023-02-06T11:28:25.037Z,31.40
2023-02-06T11:31:02.746Z,33.40
2023-02-06T11:33:45.385Z,26.60
2023-02-06T11:36:28.351Z,23.40
2023-02-06T11:39:07.896Z,28.30
2023-02-06T11:41:35.691Z,31.50
2023-02-06T11:44:06.748Z,24.70
2023-02-06T11:46:37.020Z,34.50
2023-02-06T11:49:22.365Z,26.60
2023-02-06T11:51:55.905Z,25.90
2023-02-06T11:54:28.784Z,30.90
2023-02-06T11:57:20.618Z,27.20
2023-02-06T11:59:57.905Z,33.40
2023-02-06T12:02:28.966Z,30.60
2023-02-06T12:05:03.207Z,31.10
2023-02-06T12:07:37.161Z,29.30
2023-02-06T12:10:17.414Z,29.50
2023-02-06T12:12:49.987Z,34.90
2023-02-06T12:15:47.056Z,35.80
2023-02-06T12:18:20.452Z,24.70
2023-02-06T12:21:01.732Z,31.10
2023-02-06T12:23:53.455Z,30.00
2023-02-06T12:26:27.398Z,31.40
2023-02-06T12:29:23.066Z,31.10
2023-02-06T12:31:55.586Z,36.10
2023-02-06T12:34:29.052Z,31.20
2023-02-06T12:37:14.202Z,36.90
2023-02-06T12:39:43.800Z,26.60
2023-02-06T12:42:41.165Z,32.70
2023-02-06T12:45:40.577Z,31.10
2023-02-06T12:48:19.797Z,31.80
2023-02-06T12:51:09.162Z,36.90
2023-02-06T12:53:36.924Z,24.10
2023-02-06T12:56:35.888Z,31.20
2023-02-06T12:59:56.988Z,24.90
2023-02-06T13:03:03.305Z,29.30
2023-02-06T13:05:41.417Z,33.90
2023-02-06T13:08:12.901Z,37.20
2023-02-06T13:10:41.588Z,26.00
2023-02-06T13:13:28.723Z,28.30
2023-02-06T13:16:00.593Z,28.50
2023-02-06T13:19:01.873Z,30.50
2023-02-06T13:21:32.843Z,30.60
2023-02-06T13:24:03.381Z,30.80
2023-02-06T13:26:43.720Z,32.80
2023-02-06T13:29:33.597Z,33.80
2023-02-06T13:32:11.281Z,32.30
2023-02-06T13:35:22.456Z,30.10
2023-02-06T13:38:09.743Z,28.10
2023-02-06T13:40:37.750Z,27.30
2023-02-06T13:43:13.985Z,29.80
2023-02-06T13:45:55.827Z,26.90
2023-02-06T13:48:51.265Z,28.10
2023-02-06T13:51:37.444Z,30.00
2023-02-06T13:54:23.406Z,32.40
2023-02-06T13:57:15.978Z,28.90
2023-02-06T13:59:53.026Z,33.40
2023-02-06T14:02:51.629Z,28.50
2023-02-06T14:05:22.655Z,28.20
2023-02-06T14:08:15.719Z,31.70
2023-02-06T14:11:02.389Z,27.90
2023-02-06T14:13:46.783Z,29.90
2023-02-06T14:16:42.170Z,28.60
2023-02-06T14:19:30.335Z,32.20
2023-02-06T14:22:27.764Z,28.60
2023-02-06T14:25:33.519Z,29.70
2023-02-06T14:28:39.665Z,33.70
2023-02-06T14:31:52.266Z,31.20
2023-02-06T14:34:52.527Z,33.20
2023-02-06T14:37:39.123Z,30.90
2023-02-06T14:40:39.963Z,48.90
2023-02-06T14:43:14.202Z,28.60
2023-02-06T14:45:47.680Z,35.00
2023-02-06T14:48:36.444Z,32.30
2023-02-06T14:51:06.861Z,37.50
2023-02-06T14:53:40.323Z,39.60
2023-02-06T14:56:24.095Z,33.60
2023-02-06T14:58:51.975Z,31.70
2023-02-06T15:01:27.404Z,35.30
2023-02-06T15:04:10.770Z,27.80
2023-02-06T15:06:41.563Z,26.70
2023-02-06T15:09:26.945Z,32.80
2023-02-06T15:11:58.909Z,29.80
2023-02-06T15:16:59.865Z,24.70
2023-02-06T15:19:30.518Z,29.00
2023-02-06T15:22:26.925Z,27.50
2023-02-06T15:25:27.495Z,25.20
2023-02-06T15:28:04.052Z,29.60
2023-02-06T15:30:34.047Z,31.00
2023-02-06T15:33:02.219Z,30.90
2023-02-06T15:35:36.224Z,30.30
2023-02-06T15:38:13.559Z,28.00
2023-02-06T15:40:46.206Z,31.70
2023-02-06T15:43:20.313Z,31.20
2023-02-06T15:45:50.682Z,30.00
2023-02-06T15:48:29.456Z,31.20
2023-02-06T15:51:16.623Z,34.80
2023-02-06T15:53:48.265Z,35.20
2023-02-06T15:56:29.101Z,30.70
2023-02-06T15:59:02.814Z,31.30
2023-02-06T16:01:36.178Z,31.70
2023-02-06T16:04:14.109Z,31.60
2023-02-06T16:06:42.063Z,32.60
2023-02-06T16:09:21.598Z,30.30
2023-02-06T16:11:52.942Z,29.30
2023-02-06T16:14:26.557Z,31.90
2023-02-06T16:17:00.550Z,30.80
2023-02-06T16:19:52.345Z,27.90
2023-02-06T16:22:46.649Z,34.00
2023-02-06T16:25:31.145Z,34.30
2023-02-06T16:27:59.943Z,34.10
2023-02-06T16:30:36.744Z,28.70
2023-02-06T16:33:31.925Z,33.70
2023-02-06T16:36:00.074Z,35.90
2023-02-06T16:38:28.227Z,32.80
2023-02-06T16:40:56.632Z,33.70
2023-02-06T16:43:28.724Z,31.10
2023-02-06T16:48:24.294Z,31.60
2023-02-06T16:50:52.106Z,31.90
2023-02-06T16:53:25.144Z,32.40
2023-02-06T16:55:53.034Z,33.00
2023-02-06T16:58:23.963Z,33.20
2023-02-06T17:00:52.066Z,30.30
2023-02-06T17:03:19.880Z,34.50
2023-02-06T17:05:50.302Z,31.00
2023-02-06T17:08:20.731Z,27.20
2023-02-06T17:10:49.556Z,25.10
2023-02-06T17:13:23.251Z,28.80
2023-02-06T17:15:55.061Z,30.40
2023-02-06T17:18:23.633Z,29.80
2023-02-06T17:20:56.455Z,33.80
2023-02-06T17:23:26.808Z,29.90
2023-02-06T17:25:55.497Z,31.80
2023-02-06T17:28:23.431Z,34.90
2023-02-06T17:30:51.484Z,27.80
2023-02-06T17:33:19.573Z,32.60
2023-02-06T17:35:48.508Z,33.90
2023-02-06T17:38:16.685Z,34.50
2023-02-06T17:40:45.067Z,34.10
2023-02-06T17:43:13.844Z,39.60
2023-02-06T17:45:42.556Z,29.20
2023-02-06T17:48:10.656Z,27.80
2023-02-06T17:50:41.471Z,33.30
2023-02-06T17:53:14.337Z,34.50
2023-02-06T17:55:45.556Z,36.40
2023-02-06T17:58:14.514Z,34.00
2023-02-06T18:00:45.546Z,35.90
2023-02-06T18:03:17.306Z,33.40
2023-02-06T18:05:47.936Z,31.50
2023-02-06T18:08:18.667Z,31.70
2023-02-06T18:10:50.482Z,31.50
2023-02-06T18:13:21.201Z,32.60
2023-02-06T18:15:55.896Z,28.90
2023-02-06T18:18:24.823Z,36.10
2023-02-06T18:20:53.149Z,29.90
2023-02-06T18:23:21.110Z,35.30
2023-02-06T18:25:49.557Z,36.00
2023-02-06T18:28:18.226Z,34.60
2023-02-06T18:30:46.173Z,23.70
2023-02-06T18:33:14.013Z,33.00
2023-02-06T18:35:45.613Z,36.90
2023-02-06T18:38:14.359Z,39.20
2023-02-06T18:40:45.700Z,36.50
2023-02-06T18:43:15.300Z,35.40
2023-02-06T18:45:43.621Z,37.80
2023-02-06T18:48:12.823Z,37.30
2023-02-06T18:50:42.822Z,42.70
2023-02-06T18:53:10.610Z,42.50
2023-02-06T18:55:39.369Z,39.70
2023-02-06T18:58:08.228Z,44.00
2023-02-06T19:00:38.090Z,45.80
2023-02-06T19:03:06.151Z,38.10
2023-02-06T19:05:36.067Z,41.20
2023-02-06T19:08:04.001Z,45.20
2023-02-06T19:10:32.167Z,44.30
2023-02-06T19:13:00.601Z,39.80
2023-02-06T19:15:30.371Z,38.70
2023-02-06T19:17:59.568Z,45.00
2023-02-06T19:20:27.524Z,39.90
2023-02-06T19:22:57.140Z,38.20
2023-02-06T19:25:25.096Z,35.70
2023-02-06T19:27:57.523Z,40.70
2023-02-06T19:30:25.899Z,44.60
2023-02-06T19:32:53.834Z,43.80
2023-02-06T19:35:21.679Z,40.70
2023-02-06T19:37:49.543Z,38.30
2023-02-06T19:40:17.960Z,42.20
2023-02-06T19:42:45.783Z,39.80
2023-02-06T19:45:13.815Z,40.80
2023-02-06T19:47:41.721Z,38.70
2023-02-06T19:50:12.046Z,42.00
2023-02-06T19:52:41.240Z,42.20
2023-02-06T19:55:09.420Z,37.80
2023-02-06T19:57:39.621Z,42.20
2023-02-06T20:00:08.824Z,38.00
2023-02-06T20:02:37.540Z,41.50
2023-02-06T20:05:06.574Z,41.40
2023-02-06T20:07:34.677Z,41.70
2023-02-06T20:10:04.496Z,40.50
2023-02-06T20:12:32.360Z,39.40
2023-02-06T20:15:00.964Z,39.20
2023-02-06T20:17:29.302Z,40.30
2023-02-06T20:19:59.827Z,43.70
2023-02-06T20:22:28.225Z,41.10
2023-02-06T20:24:56.471Z,42.70
2023-02-06T20:27:24.817Z,43.00
2023-02-06T20:29:53.524Z,42.80
2023-02-06T20:32:21.543Z,39.90
2023-02-06T20:34:49.979Z,38.20
2023-02-06T20:37:18.037Z,40.80
2023-02-06T20:39:49.876Z,40.10
2023-02-06T20:42:19.987Z,39.90
2023-02-06T20:44:50.410Z,37.00
2023-02-06T20:47:18.470Z,39.70
2023-02-06T20:49:46.768Z,39.80
2023-02-06T20:52:14.768Z,41.20
2023-02-06T20:54:42.694Z,42.90
2023-02-06T20:57:15.485Z,36.00
2023-02-06T20:59:43.531Z,44.20
2023-02-06T21:02:11.510Z,43.20
2023-02-06T21:04:39.410Z,37.20
2023-02-06T21:07:07.619Z,41.10
2023-02-06T21:09:35.593Z,32.40
2023-02-06T21:12:04.067Z,40.60
2023-02-06T21:14:32.259Z,40.10
2023-02-06T21:17:00.207Z,41.10
2023-02-06T21:19:29.550Z,34.20
2023-02-06T21:21:57.520Z,42.30
2023-02-06T21:24:25.460Z,35.10
2023-02-06T21:26:53.727Z,44.00
2023-02-06T21:29:23.331Z,40.50
2023-02-06T21:31:55.698Z,41.10
2023-02-06T21:34:28.480Z,38.30
2023-02-06T21:36:56.279Z,41.90
2023-02-06T21:39:27.180Z,38.10
2023-02-06T21:41:55.260Z,36.60
2023-02-06T21:44:24.774Z,42.00
2023-02-06T21:46:53.350Z,40.70
2023-02-06T21:49:21.837Z,42.30
2023-02-06T21:51:50.760Z,42.70
2023-02-06T21:54:19.701Z,42.00
2023-02-06T21:56:47.595Z,46.40
2023-02-06T21:59:15.362Z,43.80
2023-02-06T22:01:43.713Z,46.90
2023-02-06T22:04:12.092Z,43.50
2023-02-06T22:06:40.182Z,40.60
2023-02-06T22:09:11.304Z,40.60
2023-02-06T22:11:40.178Z,42.40
2023-02-06T22:14:12.376Z,43.70
2023-02-06T22:16:40.733Z,40.70
2023-02-06T22:19:10.473Z,40.30
2023-02-06T22:21:39.499Z,42.20
2023-02-06T22:24:09.274Z,42.40
2023-02-06T22:26:38.985Z,37.50
2023-02-06T22:29:09.807Z,38.90
2023-02-06T22:31:40.462Z,41.00
2023-02-06T22:34:11.921Z,39.20
2023-02-06T22:36:39.832Z,35.40
2023-02-06T22:39:10.178Z,36.20
2023-02-06T22:41:45.625Z,38.60
2023-02-06T22:44:16.815Z,35.40
2023-02-06T22:46:48.915Z,38.20
2023-02-06T22:49:17.509Z,36.10
2023-02-06T22:51:45.864Z,42.10
2023-02-06T22:54:14.767Z,37.70
2023-02-06T22:56:44.167Z,34.20
2023-02-06T22:59:16.891Z,32.90
2023-02-06T23:02:31.287Z,26.10
2023-02-06T23:04:59.182Z,29.90
2023-02-06T23:07:26.940Z,28.90
2023-02-06T23:09:54.725Z,17.60
2023-02-06T23:12:22.764Z,26.00
2023-02-06T23:14:50.627Z,25.80
2023-02-06T23:17:18.489Z,28.00
2023-02-06T23:19:46.353Z,22.60
2023-02-06T23:22:14.222Z,22.10
2023-02-06T23:24:41.963Z,22.20
2023-02-06T23:27:09.854Z,25.80
2023-02-06T23:29:37.643Z,27.00
2023-02-06T23:32:05.561Z,25.60
2023-02-06T23:34:33.346Z,31.00
2023-02-06T23:37:01.104Z,21.10
2023-02-06T23:39:29.085Z,32.80
2023-02-06T23:41:56.858Z,30.20
2023-02-06T23:44:24.695Z,26.60
2023-02-06T23:46:52.414Z,25.00
2023-02-06T23:49:20.326Z,25.00
2023-02-06T23:51:48.088Z,24.60
2023-02-06T23:54:15.964Z,24.60
2023-02-06T23:56:43.765Z,24.80
2023-02-06T23:59:12.150Z,33.80
